createdAt,value
2023-01-13T00:00:43.537Z,11
2023-01-13T00:01:43.457Z,11.1
2023-01-13T00:02:43.468Z,11.1
2023-01-13T00:03:43.424Z,11.1
2023-01-13T00:04:43.440Z,11.2
2023-01-13T00:05:43.502Z,11.1
2023-01-13T00:06:43.437Z,10.9
2023-01-13T00:07:43.482Z,10.9
2023-01-13T00:08:43.452Z,11
2023-01-13T00:09:43.420Z,11.1
2023-01-13T00:10:43.587Z,11
2023-01-13T00:11:43.421Z,11.1
2023-01-13T00:13:43.425Z,11.3
2023-01-13T00:14:43.422Z,11.3
2023-01-13T00:15:43.453Z,11
2023-01-13T00:16:43.421Z,11
2023-01-13T00:17:43.431Z,11
2023-01-13T00:18:43.419Z,11.1
2023-01-13T00:19:43.435Z,11.1
2023-01-13T00:20:43.436Z,11
2023-01-13T00:21:43.435Z,11
2023-01-13T00:22:43.423Z,10.9
2023-01-13T00:23:43.416Z,11
2023-01-13T00:24:43.424Z,11.1
2023-01-13T00:25:43.423Z,11
2023-01-13T00:26:43.420Z,11.1
2023-01-13T00:28:43.429Z,11
2023-01-13T00:29:43.428Z,10.8
2023-01-13T00:30:43.423Z,11
2023-01-13T00:31:43.417Z,11.1
2023-01-13T00:32:43.456Z,11
2023-01-13T00:33:43.413Z,11.1
2023-01-13T00:34:43.420Z,11.1
2023-01-13T00:35:43.449Z,11.1
2023-01-13T00:36:43.419Z,11.1
2023-01-13T00:38:43.420Z,11
2023-01-13T00:39:43.418Z,11.2
2023-01-13T00:40:43.424Z,11.1
2023-01-13T00:41:43.416Z,11.2
2023-01-13T00:42:43.428Z,11.3
2023-01-13T00:43:43.422Z,11.3
2023-01-13T00:44:43.412Z,11.3
2023-01-13T00:45:43.420Z,11.3
2023-01-13T00:46:43.485Z,11.3
2023-01-13T00:47:43.428Z,11.4
2023-01-13T00:48:43.431Z,11.3
2023-01-13T00:49:43.421Z,11.3
2023-01-13T00:50:43.416Z,11.3
2023-01-13T00:51:43.421Z,11.2
2023-01-13T00:52:43.424Z,11.3
2023-01-13T00:53:43.452Z,11.2
2023-01-13T00:54:43.430Z,11.2
2023-01-13T00:55:43.420Z,11.3
2023-01-13T00:56:43.414Z,11.2
2023-01-13T00:57:43.436Z,11.3
2023-01-13T00:59:43.415Z,11.4
2023-01-13T01:00:43.519Z,11.3
2023-01-13T01:01:43.697Z,11.4
2023-01-13T01:02:43.450Z,11.4
2023-01-13T01:03:43.448Z,11.1
2023-01-13T01:04:43.422Z,11.1
2023-01-13T01:05:43.418Z,11.3
2023-01-13T01:06:43.422Z,11.2
2023-01-13T01:07:43.422Z,11.2
2023-01-13T01:08:43.414Z,11.1
2023-01-13T01:09:43.433Z,11.2
2023-01-13T01:25:43.420Z,11.1
2023-01-13T01:26:43.429Z,11.1
2023-01-13T01:27:43.416Z,11
2023-01-13T01:28:43.422Z,11
2023-01-13T01:29:43.436Z,10.9
2023-01-13T01:30:43.430Z,11.1
2023-01-13T01:31:43.525Z,11
2023-01-13T01:32:43.435Z,11
2023-01-13T01:33:43.430Z,10.8
2023-01-13T01:34:43.447Z,11
2023-01-13T01:36:43.434Z,10.9
2023-01-13T01:37:43.426Z,11.1
2023-01-13T01:38:43.416Z,11.1
2023-01-13T01:39:43.429Z,11
2023-01-13T01:40:43.414Z,11.1
2023-01-13T01:41:43.412Z,11
2023-01-13T01:42:43.420Z,11
2023-01-13T01:44:43.419Z,11
2023-01-13T01:45:43.419Z,10.9
2023-01-13T01:46:43.487Z,10.9
2023-01-13T01:47:43.428Z,10.8
2023-01-13T01:48:43.437Z,10.9
2023-01-13T01:49:43.419Z,11
2023-01-13T01:50:43.424Z,11
2023-01-13T01:51:43.431Z,11.1
2023-01-13T01:52:43.412Z,11
2023-01-13T01:53:43.420Z,10.9
2023-01-13T01:54:43.437Z,11
2023-01-13T01:55:43.425Z,10.9
2023-01-13T01:56:43.426Z,10.9
2023-01-13T01:57:43.419Z,11
2023-01-13T01:58:43.420Z,10.9
2023-01-13T02:00:43.462Z,11
2023-01-13T02:01:43.546Z,11
2023-01-13T02:02:43.572Z,11
2023-01-13T02:03:43.431Z,10.8
2023-01-13T02:04:43.438Z,10.8
2023-01-13T02:06:43.423Z,10.9
2023-01-13T02:07:43.415Z,11.1
2023-01-13T02:08:43.421Z,11
2023-01-13T02:09:43.432Z,10.8
2023-01-13T02:10:43.416Z,10.7
2023-01-13T02:11:43.420Z,10.8
2023-01-13T02:12:43.578Z,10.6
2023-01-13T02:13:43.414Z,10.7
2023-01-13T02:14:43.416Z,10.8
2023-01-13T02:15:43.414Z,10.6
2023-01-13T02:16:43.471Z,10.7
2023-01-13T02:17:43.415Z,10.9
2023-01-13T02:18:43.450Z,10.7
2023-01-13T02:19:43.437Z,10.7
2023-01-13T02:21:43.424Z,10.7
2023-01-13T02:22:43.415Z,10.4
2023-01-13T02:23:43.416Z,10.7
2023-01-13T02:24:43.450Z,10.6
2023-01-13T02:25:43.417Z,10.5
2023-01-13T02:26:43.418Z,10.5
2023-01-13T02:27:43.422Z,10.3
2023-01-13T02:28:43.419Z,10.4
2023-01-13T02:29:43.423Z,10.4
2023-01-13T02:31:43.475Z,10.6
2023-01-13T02:32:43.421Z,10.7
2023-01-13T02:33:43.413Z,10.7
2023-01-13T02:34:43.438Z,10.6
2023-01-13T02:35:43.427Z,10.7
2023-01-13T02:36:43.459Z,10.8
2023-01-13T02:37:43.423Z,10.8
2023-01-13T02:38:43.421Z,10.6
2023-01-13T02:39:43.419Z,10.6
2023-01-13T02:40:43.433Z,10.7
2023-01-13T02:41:43.512Z,10.5
2023-01-13T02:42:43.417Z,10.7
2023-01-13T02:43:43.418Z,10.5
2023-01-13T02:44:43.421Z,10.7
2023-01-13T02:45:43.491Z,10.8
2023-01-13T02:46:43.438Z,10.6
2023-01-13T02:47:43.414Z,10.5
2023-01-13T02:48:43.424Z,10.6
2023-01-13T02:49:43.428Z,10.6
2023-01-13T02:50:43.440Z,10.5
2023-01-13T02:51:43.428Z,10.5
2023-01-13T02:52:43.422Z,10.6
2023-01-13T02:53:43.423Z,10.4
2023-01-13T02:54:43.423Z,10.4
2023-01-13T02:55:43.448Z,10.2
2023-01-13T02:56:43.421Z,10.3
2023-01-13T03:13:43.435Z,9.9
2023-01-13T03:14:43.467Z,10
2023-01-13T03:15:43.421Z,9.8
2023-01-13T03:16:43.460Z,9.7
2023-01-13T03:17:43.420Z,9.7
2023-01-13T03:18:43.465Z,9.8
2023-01-13T03:19:43.419Z,9.8
2023-01-13T03:20:43.425Z,9.8
2023-01-13T03:21:43.423Z,9.8
2023-01-13T03:23:43.430Z,9.8
2023-01-13T03:24:43.434Z,9.7
2023-01-13T03:25:43.446Z,9.7
2023-01-13T03:26:43.419Z,9.6
2023-01-13T03:27:43.426Z,9.7
2023-01-13T03:28:43.420Z,9.8
2023-01-13T03:29:43.422Z,9.7
2023-01-13T03:31:43.418Z,9.5
2023-01-13T03:32:43.419Z,9.5
2023-01-13T03:33:43.419Z,9.4
2023-01-13T03:34:43.426Z,9.3
2023-01-13T03:35:43.418Z,9.3
2023-01-13T03:36:43.420Z,9.3
2023-01-13T03:37:43.427Z,9.4
2023-01-13T03:38:43.470Z,9.6
2023-01-13T03:39:43.420Z,9.5
2023-01-13T03:40:43.417Z,9.4
2023-01-13T03:41:43.419Z,9.5
2023-01-13T03:42:43.455Z,9.5
2023-01-13T03:44:43.437Z,9.4
2023-01-13T03:45:43.458Z,9.4
2023-01-13T03:46:43.430Z,9.2
2023-01-13T03:47:43.417Z,9.3
2023-01-13T03:48:43.417Z,9.5
2023-01-13T03:49:43.418Z,9.4
2023-01-13T03:50:43.421Z,9.4
2023-01-13T03:51:43.422Z,9.3
2023-01-13T03:52:43.455Z,9.4
2023-01-13T03:53:43.422Z,9.3
2023-01-13T03:54:43.422Z,9.4
2023-01-13T03:55:43.419Z,9.5
2023-01-13T03:56:43.430Z,9.4
2023-01-13T03:57:43.460Z,9.5
2023-01-13T03:58:43.425Z,9.6
2023-01-13T03:59:43.421Z,9.5
2023-01-13T04:00:43.426Z,9.4
2023-01-13T04:01:43.610Z,9.4
2023-01-13T04:02:43.432Z,9.5
2023-01-13T04:03:43.427Z,9.5
2023-01-13T04:04:43.421Z,9.5
2023-01-13T04:05:43.429Z,9.4
2023-01-13T04:06:43.411Z,9.3
2023-01-13T04:07:43.419Z,9.2
2023-01-13T04:09:43.447Z,9.1
2023-01-13T04:10:43.437Z,9.3
2023-01-13T04:11:43.414Z,9.1
2023-01-13T04:12:43.507Z,9.2
2023-01-13T04:13:43.415Z,9.2
2023-01-13T04:14:43.430Z,9.1
2023-01-13T04:15:43.485Z,9
2023-01-13T04:16:43.442Z,9.1
2023-01-13T04:17:43.430Z,9.1
2023-01-13T04:18:43.416Z,9.2
2023-01-13T04:19:43.417Z,9.2
2023-01-13T04:20:43.474Z,9.1
2023-01-13T04:21:43.415Z,9.1
2023-01-13T04:22:43.425Z,9
2023-01-13T04:23:43.430Z,9.2
2023-01-13T04:24:43.427Z,9.3
2023-01-13T04:25:43.435Z,9.3
2023-01-13T04:26:43.415Z,9.2
2023-01-13T04:27:43.415Z,9.2
2023-01-13T04:28:43.420Z,9.2
2023-01-13T04:30:43.524Z,9.3
2023-01-13T04:31:43.425Z,9.3
2023-01-13T04:32:43.443Z,9.4
2023-01-13T04:33:43.432Z,9.2
2023-01-13T04:34:43.410Z,9.2
2023-01-13T04:35:43.420Z,9.1
2023-01-13T04:36:43.417Z,9
2023-01-13T04:37:43.434Z,9
2023-01-13T04:38:43.415Z,9.2
2023-01-13T04:39:43.422Z,9.2
2023-01-13T04:40:43.448Z,9.3
2023-01-13T04:41:43.412Z,9.2
2023-01-13T04:42:43.412Z,9.2
2023-01-13T04:43:43.418Z,9.2
2023-01-13T04:44:43.412Z,9.2
2023-01-13T04:45:43.419Z,9.2
2023-01-13T04:46:43.415Z,9.3
2023-01-13T04:47:43.417Z,9.1
2023-01-13T04:48:43.424Z,9.3
2023-01-13T04:49:43.416Z,9.3
2023-01-13T04:50:43.423Z,9.3
2023-01-13T04:51:43.412Z,9.2
2023-01-13T04:52:43.422Z,9.3
2023-01-13T04:53:43.417Z,9.2
2023-01-13T04:54:43.412Z,9.4
2023-01-13T04:55:43.422Z,9.3
2023-01-13T04:56:43.429Z,9.2
2023-01-13T04:57:43.411Z,9.2
2023-01-13T05:00:43.413Z,9.3
2023-01-13T05:14:43.421Z,9.4
2023-01-13T05:15:43.525Z,9.2
2023-01-13T05:16:43.410Z,9.3
2023-01-13T05:17:43.418Z,9.4
2023-01-13T05:18:43.419Z,9.5
2023-01-13T05:19:43.410Z,9.5
2023-01-13T05:20:43.420Z,9.4
2023-01-13T05:21:43.418Z,9.4
2023-01-13T05:22:43.409Z,9.5
2023-01-13T05:23:43.417Z,9.4
2023-01-13T05:25:44.403Z,9.4
2023-01-13T05:26:43.415Z,9.5
2023-01-13T05:27:43.419Z,9.6
2023-01-13T05:28:43.414Z,9.7
2023-01-13T05:29:43.454Z,9.6
2023-01-13T05:30:43.413Z,9.5
2023-01-13T05:31:43.427Z,9.5
2023-01-13T05:33:43.417Z,9.5
2023-01-13T05:34:43.440Z,9.2
2023-01-13T05:35:43.417Z,9.4
2023-01-13T05:36:43.416Z,9.5
2023-01-13T05:37:43.422Z,9.5
2023-01-13T05:38:44.448Z,9.5
2023-01-13T05:39:43.422Z,9.6
2023-01-13T05:40:43.424Z,9.5
2023-01-13T05:41:43.413Z,9.5
2023-01-13T05:42:43.469Z,9.5
2023-01-13T05:43:43.421Z,9.5
2023-01-13T05:44:43.423Z,9.5
2023-01-13T05:45:43.417Z,9.7
2023-01-13T05:46:43.505Z,9.6
2023-01-13T05:47:43.415Z,9.6
2023-01-13T05:48:43.449Z,9.5
2023-01-13T05:49:43.420Z,9.5
2023-01-13T05:50:43.422Z,9.6
2023-01-13T05:51:43.424Z,9.6
2023-01-13T05:52:43.446Z,9.5
2023-01-13T05:54:43.415Z,9.6
2023-01-13T05:55:43.416Z,9.6
2023-01-13T05:56:43.414Z,9.5
2023-01-13T05:57:43.410Z,9.5
2023-01-13T05:58:43.414Z,9.4
2023-01-13T05:59:43.418Z,9.4
2023-01-13T06:00:43.408Z,9.4
2023-01-13T06:01:43.433Z,9.5
2023-01-13T06:02:43.443Z,9.5
2023-01-13T06:03:43.414Z,9.5
2023-01-13T06:05:43.432Z,9.5
2023-01-13T06:06:43.445Z,9.5
2023-01-13T06:07:43.438Z,9.6
2023-01-13T06:08:43.423Z,9.5
2023-01-13T06:09:43.428Z,9.5
2023-01-13T06:10:43.414Z,9.5
2023-01-13T06:11:43.415Z,9.4
2023-01-13T06:12:43.416Z,9.4
2023-01-13T06:13:43.456Z,9.6
2023-01-13T06:14:43.415Z,9.6
2023-01-13T06:15:43.461Z,9.5
2023-01-13T06:16:43.416Z,9.5
2023-01-13T06:17:43.426Z,9.5
2023-01-13T06:20:43.418Z,9.5
2023-01-13T06:21:43.417Z,9.3
2023-01-13T06:22:43.419Z,9.3
2023-01-13T06:23:43.426Z,9.2
2023-01-13T06:24:43.411Z,9.4
2023-01-13T06:25:43.432Z,9.2
2023-01-13T06:26:43.410Z,9.1
2023-01-13T06:27:43.412Z,9.2
2023-01-13T06:28:43.415Z,9.1
2023-01-13T06:29:43.419Z,9.1
2023-01-13T06:30:43.413Z,9
2023-01-13T06:31:43.453Z,9
2023-01-13T06:32:43.443Z,8.9
2023-01-13T06:33:43.414Z,9
2023-01-13T06:34:43.411Z,9
2023-01-13T06:35:43.411Z,9
2023-01-13T06:36:43.470Z,9
2023-01-13T06:37:43.452Z,8.9
2023-01-13T06:38:43.640Z,8.8
2023-01-13T06:39:43.423Z,8.9
2023-01-13T06:40:43.416Z,8.9
2023-01-13T06:41:43.464Z,8.9
2023-01-13T06:42:43.418Z,8.8
2023-01-13T06:43:43.417Z,8.9
2023-01-13T06:44:43.441Z,8.8
2023-01-13T06:45:43.413Z,8.8
2023-01-13T06:46:43.566Z,8.7
2023-01-13T06:47:43.422Z,8.8
2023-01-13T06:48:43.410Z,8.9
2023-01-13T06:49:43.425Z,8.9
2023-01-13T06:50:43.416Z,9
2023-01-13T06:51:43.414Z,8.9
2023-01-13T06:52:43.417Z,8.9
2023-01-13T06:53:43.411Z,8.7
2023-01-13T06:54:43.410Z,8.8
2023-01-13T06:55:43.421Z,8.9
2023-01-13T06:56:43.412Z,9
2023-01-13T06:57:43.417Z,9
2023-01-13T06:58:43.421Z,9
2023-01-13T06:59:43.420Z,9
2023-01-13T07:00:43.474Z,9
2023-01-13T07:01:43.712Z,9
2023-01-13T07:02:43.607Z,8.8
2023-01-13T07:03:43.419Z,8.9
2023-01-13T07:04:43.423Z,8.7
2023-01-13T07:05:43.412Z,8.8
2023-01-13T07:06:43.416Z,8.9
2023-01-13T07:07:43.415Z,8.8
2023-01-13T07:08:43.433Z,8.6
2023-01-13T07:09:43.419Z,8.7
2023-01-13T07:10:43.423Z,8.7
2023-01-13T07:11:43.436Z,8.7
2023-01-13T07:12:43.449Z,8.7
2023-01-13T07:13:43.408Z,8.8
2023-01-13T07:14:43.451Z,8.7
2023-01-13T07:15:43.467Z,8.8
2023-01-13T07:16:43.444Z,8.8
2023-01-13T07:17:43.413Z,8.6
2023-01-13T07:18:43.505Z,8.7
2023-01-13T07:35:43.406Z,8.8
2023-01-13T07:36:43.432Z,9
2023-01-13T07:37:43.410Z,9
2023-01-13T07:38:43.408Z,9
2023-01-13T07:39:43.419Z,8.9
2023-01-13T07:40:43.411Z,9.1
2023-01-13T07:41:43.424Z,9.1
2023-01-13T07:42:44.179Z,9.1
2023-01-13T07:43:43.420Z,9.2
2023-01-13T07:44:43.410Z,9.3
2023-01-13T07:47:43.419Z,9.4
2023-01-13T07:48:43.412Z,9.4
2023-01-13T07:49:43.405Z,9.2
2023-01-13T07:50:44.283Z,9.3
2023-01-13T07:51:43.424Z,9.3
2023-01-13T07:52:43.403Z,9.2
2023-01-13T07:54:43.419Z,9.2
2023-01-13T07:56:43.413Z,9.2
2023-01-13T07:57:43.407Z,9.3
2023-01-13T07:58:43.420Z,9.3
2023-01-13T07:59:43.409Z,9.1
2023-01-13T08:00:43.595Z,9.2
2023-01-13T08:02:43.472Z,9.1
2023-01-13T08:03:43.410Z,9
2023-01-13T08:04:43.408Z,9.3
2023-01-13T08:05:43.424Z,9.2
2023-01-13T08:06:43.407Z,9.3
2023-01-13T08:07:43.414Z,9.3
2023-01-13T08:08:43.405Z,9.5
2023-01-13T08:09:43.415Z,9.4
2023-01-13T08:10:43.415Z,9.3
2023-01-13T08:11:43.410Z,9.1
2023-01-13T08:12:54.008Z,9.4
2023-01-13T08:13:43.416Z,9.3
2023-01-13T08:15:43.414Z,9.4
2023-01-13T08:16:43.519Z,9.5
2023-01-13T08:17:43.435Z,9.3
2023-01-13T08:18:43.433Z,9.5
2023-01-13T08:19:43.409Z,9.3
2023-01-13T08:20:43.407Z,9.3
2023-01-13T08:21:43.438Z,9.5
2023-01-13T08:22:43.405Z,9.5
2023-01-13T08:23:43.405Z,9.4
2023-01-13T08:24:43.406Z,9.4
2023-01-13T08:25:43.406Z,9.4
2023-01-13T08:26:43.416Z,9.6
2023-01-13T08:27:43.415Z,9.6
2023-01-13T08:28:43.407Z,9.6
2023-01-13T08:30:43.651Z,9.5
2023-01-13T08:31:43.415Z,9.5
2023-01-13T08:32:43.418Z,9.5
2023-01-13T08:33:43.425Z,9.5
2023-01-13T08:34:43.410Z,9.5
2023-01-13T08:35:43.411Z,9.5
2023-01-13T08:36:43.405Z,9.7
2023-01-13T08:37:43.413Z,9.7
2023-01-13T08:38:43.423Z,9.7
2023-01-13T08:39:43.410Z,9.6
2023-01-13T08:40:43.410Z,9.5
2023-01-13T08:41:43.416Z,9.7
2023-01-13T08:42:43.418Z,9.5
2023-01-13T08:43:43.438Z,9.6
2023-01-13T08:44:43.429Z,9.6
2023-01-13T08:45:43.483Z,9.7
2023-01-13T08:46:43.407Z,9.7
2023-01-13T08:49:43.407Z,9.7
2023-01-13T08:50:43.404Z,9.6
2023-01-13T08:51:43.409Z,9.5
2023-01-13T08:52:43.447Z,9.5
2023-01-13T08:54:43.401Z,9.7
2023-01-13T08:55:43.409Z,9.6
2023-01-13T08:56:43.499Z,9.7
2023-01-13T08:57:43.424Z,9.8
2023-01-13T08:58:43.415Z,10
2023-01-13T08:59:43.425Z,10
2023-01-13T09:00:43.421Z,9.8
2023-01-13T09:01:43.515Z,9.8
2023-01-13T09:02:43.434Z,9.7
2023-01-13T09:03:43.404Z,9.7
2023-01-13T09:04:43.470Z,9.7
2023-01-13T09:05:43.412Z,9.6
2023-01-13T09:06:43.413Z,9.6
2023-01-13T09:07:43.527Z,9.7
2023-01-13T09:08:43.410Z,9.4
2023-01-13T09:09:43.419Z,9.6
2023-01-13T09:10:43.407Z,9.8
2023-01-13T09:11:43.415Z,9.8
2023-01-13T09:12:43.415Z,9.6
2023-01-13T09:13:43.401Z,9.8
2023-01-13T09:14:43.409Z,9.8
2023-01-13T09:15:43.447Z,9.7
2023-01-13T09:16:43.407Z,9.7
2023-01-13T09:17:43.406Z,9.9
2023-01-13T09:19:43.451Z,9.7
2023-01-13T09:20:43.410Z,9.9
2023-01-13T09:21:43.411Z,10
2023-01-13T09:22:43.406Z,10.1
2023-01-13T09:23:43.401Z,10.1
2023-01-13T09:24:43.405Z,10
2023-01-13T09:25:43.467Z,10
2023-01-13T09:26:43.407Z,10.2
2023-01-13T09:27:43.518Z,10.5
2023-01-13T09:28:43.412Z,10.3
2023-01-13T09:32:43.395Z,10.5
2023-01-13T09:46:43.564Z,10.8
2023-01-13T09:47:43.409Z,10.9
2023-01-13T09:48:43.407Z,11.2
2023-01-13T09:49:43.416Z,11.5
2023-01-13T09:51:43.528Z,11.6
2023-01-13T09:52:43.427Z,11.3
2023-01-13T09:53:43.405Z,11.3
2023-01-13T09:54:43.404Z,11.3
2023-01-13T09:55:43.401Z,11.2
2023-01-13T09:57:43.423Z,10.9
2023-01-13T09:58:43.407Z,10.9
2023-01-13T09:59:43.416Z,10.6
2023-01-13T10:00:43.419Z,10.6
2023-01-13T10:01:43.403Z,10.7
2023-01-13T10:02:43.401Z,10.9
2023-01-13T10:03:43.531Z,11.3
2023-01-13T10:05:43.404Z,11.9
2023-01-13T10:06:43.404Z,11.8
2023-01-13T10:07:43.398Z,11.8
2023-01-13T10:08:43.417Z,12.1
2023-01-13T10:09:43.410Z,11.9
2023-01-13T10:11:43.408Z,12.5
2023-01-13T10:12:43.414Z,12.4
2023-01-13T10:13:43.401Z,12.6
2023-01-13T10:15:43.448Z,12.7
2023-01-13T10:16:43.404Z,12.7
2023-01-13T10:17:43.600Z,12.1
2023-01-13T10:18:43.413Z,12.3
2023-01-13T10:19:43.457Z,12.5
2023-01-13T10:20:43.404Z,12.4
2023-01-13T10:21:43.441Z,12.6
2023-01-13T10:22:43.437Z,12.4
2023-01-13T10:23:43.417Z,12.5
2023-01-13T10:24:43.420Z,12.4
2023-01-13T10:26:43.414Z,12.1
2023-01-13T10:27:43.399Z,12.2
2023-01-13T10:28:43.417Z,12.4
2023-01-13T10:29:43.446Z,12.3
2023-01-13T10:30:43.413Z,12
2023-01-13T10:31:43.424Z,12.3
2023-01-13T10:32:43.429Z,12.2
2023-01-13T10:33:43.398Z,12.6
2023-01-13T10:34:43.446Z,13.1
2023-01-13T10:35:43.405Z,13.6
2023-01-13T10:37:43.400Z,13.5
2023-01-13T10:38:43.508Z,13.8
2023-01-13T10:39:43.416Z,12.6
2023-01-13T10:40:43.398Z,12.5
2023-01-13T10:41:43.396Z,12.2
2023-01-13T10:42:43.400Z,12.3
2023-01-13T10:43:43.399Z,12.3
2023-01-13T10:44:43.411Z,12.5
2023-01-13T10:46:43.487Z,13
2023-01-13T10:47:43.396Z,13.4
2023-01-13T10:48:43.435Z,14
2023-01-13T10:49:43.421Z,13.6
2023-01-13T10:50:43.404Z,13.3
2023-01-13T10:51:43.412Z,12.5
2023-01-13T10:52:43.453Z,12.5
2023-01-13T10:53:43.402Z,12.5
2023-01-13T10:54:43.396Z,12.8
2023-01-13T10:55:43.400Z,13
2023-01-13T10:56:43.403Z,12.6
2023-01-13T10:57:43.398Z,12.2
2023-01-13T10:58:43.406Z,12
2023-01-13T10:59:43.402Z,11.9
2023-01-13T11:01:43.570Z,11.8
2023-01-13T11:02:43.446Z,11.7
2023-01-13T11:03:43.411Z,11.5
2023-01-13T11:04:43.493Z,11.5
2023-01-13T11:05:43.407Z,11.3
2023-01-13T11:06:43.438Z,11.2
2023-01-13T11:08:43.434Z,11
2023-01-13T11:09:43.401Z,11
2023-01-13T11:10:43.400Z,10.9
2023-01-13T11:11:43.417Z,11
2023-01-13T11:13:43.539Z,10.9
2023-01-13T11:14:43.416Z,10.8
2023-01-13T11:15:43.523Z,10.8
2023-01-13T11:16:53.075Z,10.8
2023-01-13T11:17:43.415Z,10.8
2023-01-13T11:18:43.403Z,10.8
2023-01-13T11:19:43.409Z,10.8
2023-01-13T11:20:43.398Z,10.9
2023-01-13T11:21:43.405Z,10.8
2023-01-13T11:22:43.415Z,11
2023-01-13T11:23:43.398Z,11
2023-01-13T11:24:43.395Z,11.1
2023-01-13T11:25:43.418Z,11.2
2023-01-13T11:26:43.404Z,11.1
2023-01-13T11:27:43.477Z,11.2
2023-01-13T11:28:43.409Z,11.4
2023-01-13T11:29:43.407Z,11.2
2023-01-13T11:30:43.400Z,11.1
2023-01-13T11:31:43.429Z,11.1
2023-01-13T11:33:43.418Z,11.1
2023-01-13T11:34:43.410Z,11.1
2023-01-13T11:35:43.403Z,11
2023-01-13T11:36:43.426Z,11
2023-01-13T11:38:43.400Z,11
2023-01-13T11:39:43.440Z,11
2023-01-13T11:40:43.411Z,11
2023-01-13T11:41:43.445Z,10.8
2023-01-13T11:42:43.400Z,10.8
2023-01-13T11:43:43.397Z,10.9
2023-01-13T11:44:43.396Z,10.8
2023-01-13T11:46:43.520Z,10.8
2023-01-13T11:47:43.404Z,10.8
2023-01-13T11:48:43.404Z,11
2023-01-13T11:49:43.406Z,10.9
2023-01-13T11:50:43.397Z,10.7
2023-01-13T11:51:43.392Z,10.6
2023-01-13T11:52:43.400Z,10.7
2023-01-13T11:53:43.396Z,10.6
2023-01-13T11:55:43.414Z,10.5
2023-01-13T11:56:43.536Z,10.4
2023-01-13T11:57:43.443Z,10.3
2023-01-13T11:58:50.605Z,10.3
2023-01-13T11:59:43.399Z,10.4
2023-01-13T12:00:43.396Z,10.3
2023-01-13T12:01:43.475Z,10.3
2023-01-13T12:02:43.397Z,10.1
2023-01-13T12:03:43.403Z,10.3
2023-01-13T12:04:43.402Z,10.1
2023-01-13T12:05:43.392Z,10.2
2023-01-13T12:06:43.416Z,10.2
2023-01-13T12:07:43.417Z,10.1
2023-01-13T12:08:43.395Z,10.2
2023-01-13T12:09:43.407Z,10.1
2023-01-13T12:10:43.448Z,10.1
2023-01-13T12:11:43.392Z,10
2023-01-13T12:12:43.400Z,10
2023-01-13T12:13:43.414Z,9.9
2023-01-13T12:14:43.411Z,9.9
2023-01-13T12:17:43.400Z,9.9
2023-01-13T12:18:43.403Z,9.8
2023-01-13T12:20:43.407Z,9.9
2023-01-13T12:21:43.400Z,10
2023-01-13T12:22:43.404Z,10
2023-01-13T12:23:43.393Z,10
2023-01-13T12:24:43.402Z,10
2023-01-13T12:25:43.401Z,10.1
2023-01-13T12:26:43.514Z,10.1
2023-01-13T12:27:43.946Z,10
2023-01-13T12:28:43.433Z,10.1
2023-01-13T12:29:43.399Z,10
2023-01-13T12:32:43.408Z,10.1
2023-01-13T12:33:43.398Z,10.1
2023-01-13T12:34:43.400Z,10.1
2023-01-13T12:35:43.404Z,10.1
2023-01-13T12:36:43.421Z,10.1
2023-01-13T12:37:43.402Z,10.2
2023-01-13T12:38:43.409Z,10.1
2023-01-13T12:39:43.402Z,10.1
2023-01-13T12:40:43.401Z,10.2
2023-01-13T12:41:43.439Z,10.4
2023-01-13T12:42:43.393Z,10.5
2023-01-13T12:43:43.401Z,10.5
2023-01-13T12:44:43.401Z,10.6
2023-01-13T12:45:43.433Z,10.5
2023-01-13T12:46:43.417Z,10.4
2023-01-13T12:47:43.443Z,10.5
2023-01-13T12:48:43.401Z,10.5
2023-01-13T12:49:43.392Z,10.6
2023-01-13T12:50:43.441Z,10.5
2023-01-13T12:51:43.396Z,10.6
2023-01-13T12:52:43.402Z,10.8
2023-01-13T12:53:43.398Z,10.6
2023-01-13T12:54:43.393Z,10.8
2023-01-13T12:55:43.394Z,11
2023-01-13T12:56:43.398Z,11
2023-01-13T12:57:43.411Z,10.8
2023-01-13T12:58:43.401Z,10.7
2023-01-13T12:59:43.411Z,10.8
2023-01-13T13:00:43.408Z,11.3
2023-01-13T13:01:43.514Z,11.7
2023-01-13T13:02:43.578Z,11.9
2023-01-13T13:03:43.405Z,12.3
2023-01-13T13:04:43.411Z,12.3
2023-01-13T13:05:43.395Z,12.2
2023-01-13T13:06:43.443Z,11.5
2023-01-13T13:07:43.390Z,11.5
2023-01-13T13:08:43.397Z,11.2
2023-01-13T13:09:43.393Z,11
2023-01-13T13:10:43.417Z,10.7
2023-01-13T13:11:43.400Z,10.8
2023-01-13T13:12:43.424Z,10.5
2023-01-13T13:13:43.398Z,10.5
2023-01-13T13:14:43.451Z,10.4
2023-01-13T13:15:43.393Z,10.4
2023-01-13T13:16:43.483Z,10.2
2023-01-13T13:17:43.406Z,10.2
2023-01-13T13:18:43.396Z,10.2
2023-01-13T13:19:43.410Z,10.2
2023-01-13T13:20:43.390Z,10
2023-01-13T13:21:43.392Z,10.1
2023-01-13T13:22:43.410Z,10.2
2023-01-13T13:23:43.446Z,10.2
2023-01-13T13:24:43.400Z,10.1
2023-01-13T13:25:43.395Z,10.3
2023-01-13T13:26:43.394Z,10.2
2023-01-13T13:27:43.393Z,10.2
2023-01-13T13:28:43.400Z,10.4
2023-01-13T13:29:43.403Z,10.3
2023-01-13T13:33:43.399Z,9.9
2023-01-13T13:34:43.397Z,9.9
2023-01-13T13:35:43.415Z,10
2023-01-13T13:36:43.410Z,10
2023-01-13T13:37:43.395Z,10
2023-01-13T13:38:43.408Z,9.9
2023-01-13T13:39:43.399Z,9.7
2023-01-13T13:41:43.410Z,9.9
2023-01-13T13:42:43.404Z,10
2023-01-13T13:43:43.423Z,9.9
2023-01-13T13:44:43.391Z,9.9
2023-01-13T13:46:43.411Z,9.9
2023-01-13T13:47:43.440Z,10.1
2023-01-13T13:48:43.402Z,10.1
2023-01-13T13:49:43.396Z,10.1
2023-01-13T13:50:43.504Z,10
2023-01-13T13:51:43.517Z,10.2
2023-01-13T13:52:43.407Z,10.3
2023-01-13T13:54:43.392Z,10
2023-01-13T13:55:43.464Z,10.1
2023-01-13T13:56:43.387Z,10
2023-01-13T13:57:43.427Z,10
2023-01-13T13:58:43.389Z,9.9
2023-01-13T13:59:43.391Z,9.7
2023-01-13T14:00:43.410Z,9.8
2023-01-13T14:02:43.393Z,9.6
2023-01-13T14:04:43.402Z,9.6
2023-01-13T14:05:43.491Z,9.7
2023-01-13T14:06:43.403Z,9.6
2023-01-13T14:07:43.476Z,9.4
2023-01-13T14:08:43.354Z,9.5
2023-01-13T14:09:43.358Z,9.5
2023-01-13T14:10:43.448Z,9.7
2023-01-13T14:11:43.348Z,9.6
2023-01-13T14:12:43.360Z,9.5
2023-01-13T14:13:43.349Z,9.5
2023-01-13T14:14:43.376Z,9.4
2023-01-13T14:15:43.487Z,9.6
2023-01-13T14:16:43.344Z,9.7
2023-01-13T14:17:43.347Z,9.6
2023-01-13T14:18:43.343Z,9.5
2023-01-13T14:19:43.352Z,9.4
2023-01-13T14:20:43.348Z,9.5
2023-01-13T14:21:43.348Z,9.6
2023-01-13T14:22:43.347Z,9.2
2023-01-13T14:23:43.415Z,9.4
2023-01-13T14:25:43.340Z,9.3
2023-01-13T14:26:43.346Z,9.3
2023-01-13T14:27:43.355Z,9.4
2023-01-13T14:28:43.340Z,9.5
2023-01-13T14:29:43.333Z,9.5
2023-01-13T14:30:43.363Z,9.5
2023-01-13T14:31:43.325Z,9.4
2023-01-13T14:32:43.410Z,9.3
2023-01-13T14:33:43.340Z,9.2
2023-01-13T14:35:43.330Z,9.4
2023-01-13T14:36:43.332Z,9.3
2023-01-13T14:37:43.328Z,9.5
2023-01-13T14:38:43.337Z,9.3
2023-01-13T14:39:43.337Z,9.4
2023-01-13T14:40:43.322Z,9.3
2023-01-13T14:42:43.363Z,9
2023-01-13T14:43:43.321Z,9.2
2023-01-13T14:44:43.320Z,9
2023-01-13T14:46:43.318Z,9
2023-01-13T14:47:43.313Z,9.1
2023-01-13T14:48:43.314Z,9.2
2023-01-13T14:49:43.321Z,9.3
2023-01-13T14:50:43.315Z,9.4
2023-01-13T14:51:43.319Z,9.4
2023-01-13T14:52:43.371Z,9.2
2023-01-13T14:53:43.322Z,9.3
2023-01-13T14:54:43.317Z,9.2
2023-01-13T14:56:43.337Z,9.1
2023-01-13T14:57:43.317Z,9.1
2023-01-13T14:58:43.325Z,9.1
2023-01-13T14:59:44.110Z,9
2023-01-13T15:00:43.329Z,8.9
2023-01-13T15:01:43.405Z,9
2023-01-13T15:02:43.366Z,9
2023-01-13T15:03:43.321Z,9
2023-01-13T15:04:43.369Z,9
2023-01-13T15:05:43.312Z,9
2023-01-13T15:06:43.308Z,8.8
2023-01-13T15:07:43.316Z,8.9
2023-01-13T15:08:43.329Z,8.9
2023-01-13T15:09:43.303Z,8.9
2023-01-13T15:10:43.314Z,9
2023-01-13T15:11:43.329Z,9
2023-01-13T15:12:43.313Z,9
2023-01-13T15:14:43.313Z,9.1
2023-01-13T15:15:43.358Z,9.1
2023-01-13T15:16:43.349Z,9.1
2023-01-13T15:17:43.310Z,9.1
2023-01-13T15:18:43.322Z,8.8
2023-01-13T15:19:43.308Z,8.7
2023-01-13T15:20:43.312Z,8.9
2023-01-13T15:21:43.325Z,8.7
2023-01-13T15:22:43.314Z,8.8
2023-01-13T15:23:43.319Z,8.8
2023-01-13T15:24:43.317Z,8.7
2023-01-13T15:25:43.307Z,8.8
2023-01-13T15:26:43.316Z,8.9
2023-01-13T15:27:43.320Z,8.9
2023-01-13T15:28:43.319Z,9.1
2023-01-13T15:29:43.335Z,9.1
2023-01-13T15:30:43.308Z,9.2
2023-01-13T15:31:43.313Z,9.2
2023-01-13T15:32:43.309Z,9
2023-01-13T15:33:43.315Z,9.2
2023-01-13T15:34:43.310Z,9.1
2023-01-13T15:35:43.307Z,8.9
2023-01-13T15:36:43.321Z,8.9
2023-01-13T15:37:43.313Z,8.8
2023-01-13T15:38:43.310Z,9
2023-01-13T15:39:43.309Z,9.2
2023-01-13T15:41:43.327Z,8.9
2023-01-13T15:42:43.312Z,8.9
2023-01-13T15:43:43.333Z,9
2023-01-13T15:46:43.347Z,9.1
2023-01-13T15:47:43.333Z,9.1
2023-01-13T15:48:43.306Z,9.1
2023-01-13T15:50:43.320Z,9.2
2023-01-13T15:51:43.308Z,9.3
2023-01-13T15:52:43.312Z,9.1
2023-01-13T15:53:43.303Z,9.3
2023-01-13T15:54:43.310Z,9.2
2023-01-13T15:55:43.312Z,9.2
2023-01-13T15:56:43.326Z,9.3
2023-01-13T15:57:43.307Z,9.4
2023-01-13T15:58:43.309Z,9.3
2023-01-13T15:59:43.303Z,9.3
2023-01-13T16:00:43.319Z,9.3
2023-01-13T16:01:43.366Z,9.2
2023-01-13T16:02:43.339Z,9.3
2023-01-13T16:03:43.308Z,9.4
2023-01-13T16:04:43.312Z,9.5
2023-01-13T16:06:43.313Z,9.5
2023-01-13T16:07:43.311Z,9.4
2023-01-13T16:08:43.313Z,9.4
2023-01-13T16:09:43.302Z,9.3